Time;durP1;ratioP1;P1;durP2;ratioP2;P2;SDS_P1;SDS_P2;PMS_P1;PMS_P2;Temp;Humidity;BMP_temperature;BMP_pressure;BME280_temperature;BME280_humidity;BME280_pressure;Samples;Min_cycle;Max_cycle;Signal;HPM_P1;HPM_P2
2021/07/12 00:01:46;;;;;;;92.35;47.53;;;;;;;;;;4343392;33;20171;-79
2021/07/12 00:04:13;;;;;;;91.82;50.65;;;;;;;;;;4343506;33;20286;-79
2021/07/12 00:06:38;;;;;;;92.95;47.62;;;;;;;;;;4344055;33;20163;-79
2021/07/12 00:09:04;;;;;;;88.47;47.85;;;;;;;;;;4343291;33;20500;-79
2021/07/12 00:11:29;;;;;;;83.55;46.28;;;;;;;;;;4343057;33;20179;-79
2021/07/12 00:14:02;;;;;;;90.45;49.08;;;;;;;;;;4343457;33;20226;-78
2021/07/12 00:16:30;;;;;;;104.22;52.95;;;;;;;;;;4343567;33;20186;-79
2021/07/12 00:19:03;;;;;;;104.55;53.28;;;;;;;;;;4343407;33;20186;-79
2021/07/12 00:21:35;;;;;;;87.40;48.78;;;;;;;;;;4342876;33;20163;-78
2021/07/12 00:24:09;;;;;;;87.82;48.33;;;;;;;;;;4344557;33;20158;-79
2021/07/12 00:26:35;;;;;;;98.95;51.92;;;;;;;;;;4343736;33;20167;-79
2021/07/12 00:29:03;;;;;;;89.10;47.38;;;;;;;;;;4343316;33;20232;-79
2021/07/12 00:31:31;;;;;;;89.80;47.38;;;;;;;;;;4343493;33;20190;-79
2021/07/12 00:33:57;;;;;;;91.75;46.17;;;;;;;;;;4343358;33;20653;-79
2021/07/12 00:36:22;;;;;;;95.25;49.75;;;;;;;;;;4343551;33;20208;-79
2021/07/12 00:38:50;;;;;;;91.57;49.75;;;;;;;;;;4343358;33;20206;-79
2021/07/12 00:41:45;;;;;;;92.03;49.63;;;;;;;;;;4343282;33;20155;-79
2021/07/12 00:44:10;;;;;;;82.47;45.05;;;;;;;;;;4343652;33;20233;-79
2021/07/12 00:46:43;;;;;;;90.60;49.17;;;;;;;;;;4345814;33;20159;-80
2021/07/12 00:49:11;;;;;;;86.35;47.78;;;;;;;;;;4344027;33;20181;-79
2021/07/12 00:51:49;;;;;;;102.18;53.53;;;;;;;;;;4343900;33;20152;-80
2021/07/12 00:57:41;;;;;;;99.70;51.17;;;;;;;;;;4299989;32;20556;-80
2021/07/12 01:00:07;;;;;;;86.10;45.85;;;;;;;;;;4272992;33;20218;-79
2021/07/12 01:02:32;;;;;;;79.80;45.00;;;;;;;;;;4316051;33;20208;-79
2021/07/12 01:04:58;;;;;;;92.85;50.30;;;;;;;;;;4328342;33;20496;-79
2021/07/12 01:07:32;;;;;;;83.40;45.10;;;;;;;;;;4328581;33;20152;-79
2021/07/12 01:09:58;;;;;;;80.03;44.65;;;;;;;;;;4328932;33;20147;-79
2021/07/12 01:12:49;;;;;;;83.93;48.22;;;;;;;;;;4328164;33;20180;-80
2021/07/12 01:15:19;;;;;;;81.45;45.53;;;;;;;;;;4320792;33;20201;-80
2021/07/12 01:18:09;;;;;;;84.57;47.15;;;;;;;;;;4327764;33;20209;-79
2021/07/12 01:20:45;;;;;;;101.70;53.20;;;;;;;;;;4328127;33;20518;-79
2021/07/12 01:23:10;;;;;;;88.10;47.65;;;;;;;;;;4327975;33;20156;-79
2021/07/12 01:25:46;;;;;;;81.63;47.00;;;;;;;;;;4328248;33;20264;-79
2021/07/12 01:28:20;;;;;;;90.50;51.03;;;;;;;;;;4328771;33;20246;-79
2021/07/12 01:30:45;;;;;;;86.68;46.67;;;;;;;;;;4328602;33;20228;-80
2021/07/12 01:33:33;;;;;;;79.60;45.53;;;;;;;;;;4327911;33;20155;-79
2021/07/12 01:36:06;;;;;;;83.72;47.53;;;;;;;;;;4328417;33;20666;-79
2021/07/12 01:38:37;;;;;;;98.40;53.40;;;;;;;;;;4327710;33;20152;-79
2021/07/12 01:41:21;;;;;;;85.97;47.55;;;;;;;;;;4328060;33;20182;-79
2021/07/12 01:44:06;;;;;;;90.38;47.70;;;;;;;;;;4327885;33;20164;-79
2021/07/12 01:46:34;;;;;;;92.80;51.03;;;;;;;;;;4327606;33;20164;-79
2021/07/12 01:49:23;;;;;;;75.20;43.40;;;;;;;;;;4327388;33;20159;-79
2021/07/12 01:52:05;;;;;;;84.87;47.40;;;;;;;;;;4328015;33;20610;-79
2021/07/12 01:54:49;;;;;;;80.70;47.30;;;;;;;;;;4327554;33;20209;-79
2021/07/12 01:57:20;;;;;;;78.28;44.58;;;;;;;;;;4327518;33;20175;-79
2021/07/12 01:59:56;;;;;;;83.65;46.72;;;;;;;;;;4327302;33;20218;-80
2021/07/12 02:02:26;;;;;;;87.22;47.65;;;;;;;;;;4328107;33;20159;-79
2021/07/12 02:04:55;;;;;;;81.40;46.45;;;;;;;;;;4327673;33;20156;-80
2021/07/12 02:07:25;;;;;;;74.40;42.83;;;;;;;;;;4327832;33;20160;-80
2021/07/12 02:13:41;;;;;;;91.78;50.05;;;;;;;;;;4316205;33;20209;-79
2021/07/12 02:16:03;;;;;;;70.65;40.78;;;;;;;;;;4327964;32;20160;-79
2021/07/12 02:18:32;;;;;;;85.35;47.28;;;;;;;;;;4312834;33;20156;-79
2021/07/12 02:21:02;;;;;;;84.30;46.78;;;;;;;;;;4299739;33;20305;-78
2021/07/12 02:23:37;;;;;;;76.62;44.72;;;;;;;;;;4319701;33;20159;-79
2021/07/12 02:26:23;;;;;;;69.07;40.00;;;;;;;;;;4327475;33;20458;-79
2021/07/12 02:28:57;;;;;;;74.10;42.03;;;;;;;;;;4328049;33;20171;-79
2021/07/12 02:31:24;;;;;;;72.28;45.15;;;;;;;;;;4327606;33;20186;-79
2021/07/12 02:33:50;;;;;;;72.43;42.08;;;;;;;;;;4327766;33;20280;-79
2021/07/12 02:36:16;;;;;;;70.28;41.78;;;;;;;;;;4327408;33;20152;-80
2021/07/12 02:38:41;;;;;;;65.55;39.08;;;;;;;;;;4327323;33;20152;-79
2021/07/12 02:41:10;;;;;;;65.75;39.53;;;;;;;;;;4327062;33;20633;-80
2021/07/12 02:43:36;;;;;;;73.43;45.58;;;;;;;;;;4327123;33;20159;-80
2021/07/12 02:46:03;;;;;;;66.07;40.95;;;;;;;;;;4327316;33;20676;-80
2021/07/12 02:49:01;;;;;;;;;;;;;;;;;;;;;
2021/07/12 02:51:31;;;;;;;67.90;40.33;;;;;;;;;;4328320;33;20190;-79
2021/07/12 02:53:58;;;;;;;62.03;37.25;;;;;;;;;;4327123;33;20190;-79
2021/07/12 02:56:24;;;;;;;69.90;42.95;;;;;;;;;;4326902;33;20519;-79
2021/07/12 02:58:49;;;;;;;70.75;41.55;;;;;;;;;;4331751;33;20286;-79
2021/07/12 03:01:15;;;;;;;67.47;40.90;;;;;;;;;;4342095;33;20210;-79
2021/07/12 03:03:40;;;;;;;65.62;40.92;;;;;;;;;;4341943;33;20167;-79
2021/07/12 03:06:14;;;;;;;67.30;41.72;;;;;;;;;;4342823;33;20572;-79
2021/07/12 03:12:01;;;;;;;70.22;40.95;;;;;;;;;;4311424;33;20199;-79
2021/07/12 03:14:34;;;;;;;59.25;36.80;;;;;;;;;;4341995;33;20167;-80
2021/07/12 03:17:01;;;;;;;70.25;41.47;;;;;;;;;;4342223;33;20288;-79
2021/07/12 03:19:35;;;;;;;64.85;41.83;;;;;;;;;;4342590;33;20166;-79
2021/07/12 03:22:03;;;;;;;58.00;36.85;;;;;;;;;;4341337;33;20163;-80
2021/07/12 03:24:30;;;;;;;64.55;39.58;;;;;;;;;;4341991;33;20235;-79
2021/07/12 03:27:10;;;;;;;57.95;38.60;;;;;;;;;;4344343;33;20194;-79
2021/07/12 03:29:37;;;;;;;67.10;39.25;;;;;;;;;;4343919;33;20235;-79
2021/07/12 03:32:03;;;;;;;59.47;38.55;;;;;;;;;;4344483;33;20187;-79
2021/07/12 03:34:30;;;;;;;57.67;35.70;;;;;;;;;;4343856;33;20206;-80
2021/07/12 03:36:59;;;;;;;64.15;39.72;;;;;;;;;;4343507;33;20625;-79
2021/07/12 03:39:31;;;;;;;66.50;41.70;;;;;;;;;;4343647;33;20597;-80
2021/07/12 03:42:00;;;;;;;59.03;38.95;;;;;;;;;;4331269;33;20556;-79
2021/07/12 03:44:25;;;;;;;66.62;40.38;;;;;;;;;;4341580;32;20186;-80
2021/07/12 03:46:52;;;;;;;58.42;36.63;;;;;;;;;;4342366;32;20171;-79
2021/07/12 03:49:32;;;;;;;72.30;43.35;;;;;;;;;;4331736;33;20152;-80
2021/07/12 03:51:59;;;;;;;68.40;42.45;;;;;;;;;;4343716;32;20481;-79
2021/07/12 03:54:24;;;;;;;68.15;43.45;;;;;;;;;;4342923;32;20167;-79
2021/07/12 03:56:50;;;;;;;70.25;44.13;;;;;;;;;;4342506;32;20468;-79
2021/07/12 03:59:18;;;;;;;61.10;37.42;;;;;;;;;;4342276;32;20206;-79
2021/07/12 04:01:43;;;;;;;70.22;41.60;;;;;;;;;;4343508;32;20195;-79
2021/07/12 04:04:09;;;;;;;70.10;41.95;;;;;;;;;;4343589;33;20280;-79
2021/07/12 04:06:37;;;;;;;58.75;36.97;;;;;;;;;;4344804;33;20559;-79
2021/07/12 04:09:13;;;;;;;;;;;;;;;;;;;;;
2021/07/12 04:11:38;;;;;;;64.85;39.65;;;;;;;;;;4345079;33;20162;-79
2021/07/12 04:14:07;;;;;;;68.28;41.72;;;;;;;;;;4343254;33;20465;-79
2021/07/12 04:16:35;;;;;;;64.97;40.25;;;;;;;;;;4343674;33;20560;-79
2021/07/12 04:19:00;;;;;;;59.47;36.95;;;;;;;;;;4343342;33;20195;-79
2021/07/12 04:21:26;;;;;;;64.80;40.67;;;;;;;;;;4343130;33;20155;-79
2021/07/12 04:23:52;;;;;;;62.65;39.33;;;;;;;;;;4343735;33;20151;-80
2021/07/12 04:26:18;;;;;;;59.72;37.72;;;;;;;;;;4343175;33;20600;-79
2021/07/12 04:28:43;;;;;;;66.70;42.45;;;;;;;;;;4343482;33;20225;-79
2021/07/12 04:31:11;;;;;;;74.22;45.10;;;;;;;;;;4343526;33;20163;-80
2021/07/12 04:33:37;;;;;;;64.32;41.75;;;;;;;;;;4343075;33;20608;-79
2021/07/12 04:36:03;;;;;;;74.12;45.05;;;;;;;;;;4344396;33;20226;-80
2021/07/12 04:38:29;;;;;;;60.35;38.50;;;;;;;;;;4343177;33;20178;-79
2021/07/12 04:40:57;;;;;;;70.45;42.55;;;;;;;;;;4343353;33;20171;-79
2021/07/12 04:43:22;;;;;;;70.82;41.40;;;;;;;;;;4343073;33;20155;-79
2021/07/12 04:45:57;;;;;;;70.57;42.15;;;;;;;;;;4342886;33;20628;-78
2021/07/12 04:48:22;;;;;;;74.50;45.25;;;;;;;;;;4343092;33;20596;-78
2021/07/12 04:51:10;;;;;;;65.07;39.40;;;;;;;;;;4342947;33;20177;-79
2021/07/12 04:53:36;;;;;;;66.03;40.70;;;;;;;;;;4343127;33;20156;-79
2021/07/12 04:56:02;;;;;;;71.12;43.33;;;;;;;;;;4342751;33;20296;-79
2021/07/12 04:58:44;;;;;;;57.33;37.63;;;;;;;;;;4343124;33;20168;-81
2021/07/12 05:01:23;;;;;;;63.35;40.97;;;;;;;;;;4342639;33;20472;-79
2021/07/12 05:03:50;;;;;;;63.20;39.55;;;;;;;;;;4343022;33;20163;-79
2021/07/12 05:06:15;;;;;;;71.22;44.25;;;;;;;;;;4342908;33;20163;-79
2021/07/12 05:08:43;;;;;;;61.97;39.67;;;;;;;;;;4342703;33;20487;-80
2021/07/12 05:11:14;;;;;;;68.82;42.08;;;;;;;;;;4342946;33;20151;-79
2021/07/12 05:13:41;;;;;;;67.70;42.40;;;;;;;;;;4342593;33;20159;-79
2021/07/12 05:16:07;;;;;;;71.75;42.60;;;;;;;;;;4344314;33;20161;-79
2021/07/12 05:18:32;;;;;;;63.72;40.08;;;;;;;;;;4342667;33;20156;-80
2021/07/12 05:20:57;;;;;;;72.43;46.55;;;;;;;;;;4342807;33;20159;-78
2021/07/12 05:23:31;;;;;;;62.65;40.03;;;;;;;;;;4342842;33;20574;-78
2021/07/12 05:25:56;;;;;;;61.78;41.20;;;;;;;;;;4342778;33;20223;-78
2021/07/12 05:28:24;;;;;;;57.60;39.65;;;;;;;;;;4342519;33;20582;-77
2021/07/12 05:31:18;;;;;;;65.40;42.13;;;;;;;;;;4342509;33;20605;-79
2021/07/12 05:33:44;;;;;;;74.57;46.58;;;;;;;;;;4343750;33;20171;-78
2021/07/12 05:36:09;;;;;;;65.85;42.22;;;;;;;;;;4343532;33;20184;-79
2021/07/12 05:38:37;;;;;;;57.83;38.20;;;;;;;;;;4342658;33;20604;-77
2021/07/12 05:41:02;;;;;;;67.18;43.35;;;;;;;;;;4341960;33;20232;-78
2021/07/12 05:43:28;;;;;;;57.38;39.80;;;;;;;;;;4342427;33;20171;-78
2021/07/12 05:45:53;;;;;;;62.62;42.28;;;;;;;;;;4342450;33;20580;-77
2021/07/12 05:48:21;;;;;;;60.72;39.08;;;;;;;;;;4341273;33;20159;-77
2021/07/12 05:50:50;;;;;;;56.80;37.60;;;;;;;;;;4342141;33;20608;-78
2021/07/12 05:53:16;;;;;;;50.97;35.33;;;;;;;;;;4342618;33;20182;-78
2021/07/12 05:55:41;;;;;;;51.15;38.05;;;;;;;;;;4342395;33;20573;-77
2021/07/12 05:58:14;;;;;;;48.60;34.42;;;;;;;;;;4342560;33;20194;-77
2021/07/12 06:00:42;;;;;;;49.80;35.38;;;;;;;;;;4343204;33;20151;-77
2021/07/12 06:03:15;;;;;;;47.35;32.97;;;;;;;;;;4342626;33;20205;-81
2021/07/12 06:05:49;;;;;;;48.83;34.65;;;;;;;;;;4342193;33;20171;-80
2021/07/12 06:08:17;;;;;;;48.92;36.13;;;;;;;;;;4342146;33;20181;-81
2021/07/12 06:10:42;;;;;;;46.45;33.92;;;;;;;;;;4338821;33;20233;-81
2021/07/12 06:13:18;;;;;;;51.72;34.90;;;;;;;;;;4334778;33;20230;-81
2021/07/12 06:15:43;;;;;;;48.78;31.85;;;;;;;;;;4332188;32;20194;-81
2021/07/12 06:18:29;;;;;;;45.17;33.38;;;;;;;;;;4332237;33;20676;-82
2021/07/12 06:20:54;;;;;;;43.83;30.77;;;;;;;;;;4341580;33;20194;-79
2021/07/12 06:24:00;;;;;;;48.60;33.38;;;;;;;;;;4341936;33;20584;-82
2021/07/12 06:26:19;;;;;;;38.42;30.15;;;;;;;;;;4341081;33;20239;-80
2021/07/12 06:28:47;;;;;;;36.63;27.90;;;;;;;;;;4338666;33;20595;-81
2021/07/12 06:31:12;;;;;;;37.95;28.25;;;;;;;;;;4340843;33;20178;-81
2021/07/12 06:33:48;;;;;;;36.95;30.25;;;;;;;;;;4342061;33;20148;-81
2021/07/12 06:36:16;;;;;;;39.05;27.95;;;;;;;;;;4341876;32;20198;-81
2021/07/12 06:38:42;;;;;;;37.45;28.95;;;;;;;;;;4341355;32;20155;-80
2021/07/12 06:41:08;;;;;;;36.63;28.55;;;;;;;;;;4341824;33;20226;-81
2021/07/12 06:43:33;;;;;;;37.20;28.40;;;;;;;;;;4342264;33;20190;-81
2021/07/12 06:45:59;;;;;;;39.97;29.50;;;;;;;;;;4341648;33;20216;-82
2021/07/12 06:48:27;;;;;;;36.70;28.75;;;;;;;;;;4341446;33;20164;-81
2021/07/12 06:51:03;;;;;;;32.72;25.92;;;;;;;;;;4340395;32;20168;-80
2021/07/12 06:53:42;;;;;;;32.13;26.02;;;;;;;;;;4341795;32;20639;-81
2021/07/12 06:56:33;;;;;;;30.10;25.10;;;;;;;;;;4339672;33;20256;-81
2021/07/12 06:58:57;;;;;;;29.12;23.40;;;;;;;;;;4328428;33;20198;-81
2021/07/12 07:01:47;;;;;;;31.80;25.12;;;;;;;;;;4329560;33;20640;-82
2021/07/12 07:04:13;;;;;;;32.83;26.15;;;;;;;;;;4329501;33;20182;-80
2021/07/12 07:06:45;;;;;;;30.80;24.80;;;;;;;;;;4331553;32;20159;-81
2021/07/12 07:09:17;;;;;;;32.25;24.48;;;;;;;;;;4343378;33;20221;-81
2021/07/12 07:11:42;;;;;;;32.88;24.60;;;;;;;;;;4343907;33;20592;-81
2021/07/12 07:14:08;;;;;;;31.35;25.27;;;;;;;;;;4344011;33;20249;-80
2021/07/12 07:16:45;;;;;;;30.35;24.65;;;;;;;;;;4341851;33;20258;-81
2021/07/12 07:25:52;;;;;;;30.42;22.80;;;;;;;;;;4345099;33;20174;-81
2021/07/12 07:28:23;;;;;;;28.67;23.48;;;;;;;;;;4300761;33;20176;-81
2021/07/12 07:30:48;;;;;;;29.58;24.33;;;;;;;;;;4301263;32;20164;-80
2021/07/12 07:33:14;;;;;;;29.50;24.08;;;;;;;;;;4323340;33;20197;-83
2021/07/12 07:35:42;;;;;;;30.10;24.83;;;;;;;;;;4343388;33;20159;-80
2021/07/12 07:38:08;;;;;;;31.12;25.42;;;;;;;;;;4344516;33;20273;-81
2021/07/12 07:40:45;;;;;;;27.25;22.85;;;;;;;;;;4337841;33;20195;-82
2021/07/12 07:43:22;;;;;;;26.87;23.27;;;;;;;;;;4328714;33;20212;-80
2021/07/12 07:45:48;;;;;;;25.65;21.08;;;;;;;;;;4343197;32;20189;-82
2021/07/12 07:48:14;;;;;;;27.42;23.05;;;;;;;;;;4328904;33;20488;-82
2021/07/12 07:50:49;;;;;;;27.58;21.52;;;;;;;;;;4343662;33;20530;-80
2021/07/12 07:53:25;;;;;;;;;;;;;;;;;;;;;
2021/07/12 07:56:00;;;;;;;27.90;22.08;;;;;;;;;;4313454;33;20140;-81
2021/07/12 07:58:25;;;;;;;29.90;23.52;;;;;;;;;;4335541;33;20603;-81
2021/07/12 08:00:50;;;;;;;28.05;21.33;;;;;;;;;;4343505;33;20202;-82
2021/07/12 08:03:16;;;;;;;27.30;22.30;;;;;;;;;;4343611;33;20163;-81
2021/07/12 08:06:12;;;;;;;27.23;22.40;;;;;;;;;;4344882;33;20139;-81
2021/07/12 08:08:42;;;;;;;28.05;21.70;;;;;;;;;;4332978;33;20224;-82
2021/07/12 08:11:11;;;;;;;27.52;21.73;;;;;;;;;;4333165;33;20607;-80
2021/07/12 08:13:39;;;;;;;25.88;21.42;;;;;;;;;;4343429;33;20156;-81
2021/07/12 08:16:05;;;;;;;24.15;20.08;;;;;;;;;;4328831;32;20238;-82
2021/07/12 08:18:46;;;;;;;24.52;19.27;;;;;;;;;;4330692;33;20185;-83
2021/07/12 08:21:14;;;;;;;23.52;19.55;;;;;;;;;;4341491;33;20190;-81
2021/07/12 08:23:41;;;;;;;20.33;17.35;;;;;;;;;;4333691;32;20183;-81
2021/07/12 08:26:07;;;;;;;21.60;17.83;;;;;;;;;;4330176;33;20159;-81
2021/07/12 08:28:32;;;;;;;21.77;18.10;;;;;;;;;;4342905;33;20159;-81
2021/07/12 08:30:57;;;;;;;17.25;15.27;;;;;;;;;;4343522;33;20160;-82
2021/07/12 08:33:23;;;;;;;17.33;13.23;;;;;;;;;;4342875;33;20228;-81
2021/07/12 08:35:51;;;;;;;15.85;13.98;;;;;;;;;;4344687;33;20127;-82
2021/07/12 08:38:16;;;;;;;16.87;14.32;;;;;;;;;;4343297;33;20576;-83
2021/07/12 08:40:49;;;;;;;19.10;14.48;;;;;;;;;;4343350;33;20190;-83
2021/07/12 08:43:19;;;;;;;15.27;12.82;;;;;;;;;;4342922;33;20209;-81
2021/07/12 08:45:45;;;;;;;16.58;13.02;;;;;;;;;;4342762;33;20155;-81
2021/07/12 08:48:10;;;;;;;12.88;11.38;;;;;;;;;;4344027;33;20230;-81
2021/07/12 08:50:35;;;;;;;15.13;12.65;;;;;;;;;;4343581;33;20232;-82
2021/07/12 08:53:03;;;;;;;13.15;11.52;;;;;;;;;;4342627;33;20179;-83
2021/07/12 08:55:29;;;;;;;15.52;12.23;;;;;;;;;;4342723;33;20160;-82
2021/07/12 08:58:19;;;;;;;14.55;11.30;;;;;;;;;;4343036;33;20152;-82
2021/07/12 09:00:45;;;;;;;11.60;9.65;;;;;;;;;;4342593;33;20202;-80
2021/07/12 09:06:25;;;;;;;11.65;9.75;;;;;;;;;;4314633;33;20266;-82
2021/07/12 09:09:20;;;;;;;11.20;9.63;;;;;;;;;;4343130;33;20168;-81
2021/07/12 09:12:15;;;;;;;9.60;8.23;;;;;;;;;;4338099;33;20172;-81
2021/07/12 09:14:44;;;;;;;10.07;8.13;;;;;;;;;;4336847;33;20167;-81
2021/07/12 09:17:14;;;;;;;9.82;7.43;;;;;;;;;;4342158;33;20179;-81
2021/07/12 09:19:47;;;;;;;8.32;7.43;;;;;;;;;;4342979;33;20160;-80
2021/07/12 09:22:21;;;;;;;8.48;7.18;;;;;;;;;;4339677;33;20620;-82
2021/07/12 09:24:56;;;;;;;9.18;7.28;;;;;;;;;;4342000;33;20224;-81
2021/07/12 09:27:26;;;;;;;8.05;6.97;;;;;;;;;;4344343;33;20182;-81
2021/07/12 09:30:14;;;;;;;7.00;6.30;;;;;;;;;;4343609;33;20155;-80
2021/07/12 09:35:30;;;;;;;8.30;7.20;;;;;;;;;;4348969;32;20201;-81
2021/07/12 09:38:02;;;;;;;9.75;8.43;;;;;;;;;;4341731;33;20159;-81
2021/07/12 09:40:28;;;;;;;9.65;7.20;;;;;;;;;;4342326;33;20163;-81
2021/07/12 09:43:26;;;;;;;;;;;;;;;;;;;;;
2021/07/12 09:49:10;;;;;;;7.85;7.03;;;;;;;;;;4297918;33;20664;-82
2021/07/12 09:51:38;;;;;;;9.20;7.97;;;;;;;;;;4342064;33;20155;-81
2021/07/12 09:54:40;;;;;;;8.23;6.50;;;;;;;;;;4342027;33;20167;-80
2021/07/12 09:57:06;;;;;;;8.85;7.62;;;;;;;;;;4342031;32;20166;-82
2021/07/12 09:59:35;;;;;;;9.77;7.80;;;;;;;;;;4341799;32;20231;-82
2021/07/12 10:02:15;;;;;;;9.82;7.30;;;;;;;;;;4342317;33;20220;-81
2021/07/12 10:04:48;;;;;;;8.18;7.30;;;;;;;;;;4342962;33;20148;-82
2021/07/12 10:07:13;;;;;;;6.97;6.15;;;;;;;;;;4341703;33;20443;-81
2021/07/12 10:09:39;;;;;;;7.05;5.97;;;;;;;;;;4342145;33;20174;-81
2021/07/12 10:12:04;;;;;;;6.72;4.78;;;;;;;;;;4341781;33;20588;-81
2021/07/12 10:14:30;;;;;;;5.55;4.90;;;;;;;;;;4340970;33;20225;-82
2021/07/12 10:16:55;;;;;;;7.10;5.07;;;;;;;;;;4342018;33;20186;-81
2021/07/12 10:19:21;;;;;;;7.68;6.37;;;;;;;;;;4341966;33;20600;-81
2021/07/12 10:22:16;;;;;;;8.48;6.70;;;;;;;;;;4341978;33;20178;-81
2021/07/12 10:24:48;;;;;;;8.25;6.93;;;;;;;;;;4337423;33;20253;-79
2021/07/12 10:27:28;;;;;;;11.68;7.50;;;;;;;;;;4341370;33;20155;-81
2021/07/12 10:29:55;;;;;;;10.82;7.25;;;;;;;;;;4341783;33;20261;-80
2021/07/12 10:32:24;;;;;;;7.47;6.40;;;;;;;;;;4341736;33;20178;-80
2021/07/12 10:34:50;;;;;;;8.32;5.72;;;;;;;;;;4331722;33;20171;-81
2021/07/12 10:37:42;;;;;;;6.00;5.22;;;;;;;;;;4330317;33;20227;-80
2021/07/12 10:40:20;;;;;;;4.70;4.12;;;;;;;;;;4336276;33;20245;-79
2021/07/12 10:42:46;;;;;;;5.62;3.87;;;;;;;;;;4344248;33;20155;-81
2021/07/12 10:45:14;;;;;;;5.40;3.40;;;;;;;;;;4343844;33;20181;-80
2021/07/12 10:47:47;;;;;;;7.10;4.47;;;;;;;;;;4341685;33;20238;-81
2021/07/12 10:50:31;;;;;;;4.80;4.10;;;;;;;;;;4329727;33;20156;-81
2021/07/12 10:52:56;;;;;;;5.40;4.47;;;;;;;;;;4329312;32;20160;-80
2021/07/12 10:55:31;;;;;;;6.05;4.53;;;;;;;;;;4330630;33;20170;-80
2021/07/12 10:58:23;;;;;;;5.07;3.67;;;;;;;;;;4329824;33;20584;-81
2021/07/12 11:01:11;;;;;;;5.80;4.93;;;;;;;;;;4328479;32;20240;-81
2021/07/12 11:03:44;;;;;;;6.80;4.93;;;;;;;;;;4329315;32;20164;-80
2021/07/12 11:06:11;;;;;;;3.62;3.20;;;;;;;;;;4329978;33;20519;-78
2021/07/12 11:08:49;;;;;;;4.60;3.70;;;;;;;;;;4330648;33;20140;-81
2021/07/12 11:11:20;;;;;;;5.40;3.12;;;;;;;;;;4329970;33;20213;-81
2021/07/12 11:13:49;;;;;;;3.55;2.97;;;;;;;;;;4330273;33;20209;-82
2021/07/12 11:16:18;;;;;;;3.55;2.67;;;;;;;;;;4330388;33;20140;-81
2021/07/12 11:19:07;;;;;;;4.22;3.30;;;;;;;;;;4329241;33;20209;-81
2021/07/12 11:21:35;;;;;;;4.53;3.40;;;;;;;;;;4331015;33;20155;-81
2021/07/12 11:24:09;;;;;;;5.50;4.25;;;;;;;;;;4329382;33;20156;-82
2021/07/12 11:26:35;;;;;;;4.40;3.55;;;;;;;;;;4330056;33;20575;-81
2021/07/12 11:29:11;;;;;;;3.45;2.83;;;;;;;;;;4329118;33;20155;-81
2021/07/12 11:31:41;;;;;;;4.47;3.12;;;;;;;;;;4329217;33;20151;-81
2021/07/12 11:34:06;;;;;;;4.57;3.72;;;;;;;;;;4328884;33;20194;-81
2021/07/12 11:36:38;;;;;;;4.82;4.03;;;;;;;;;;4341627;32;20636;-81
2021/07/12 11:39:04;;;;;;;3.62;3.20;;;;;;;;;;4344289;33;20213;-81
2021/07/12 11:41:30;;;;;;;4.28;3.60;;;;;;;;;;4343819;33;20211;-81
2021/07/12 11:44:11;;;;;;;4.53;3.00;;;;;;;;;;4330208;33;20156;-81
2021/07/12 11:46:40;;;;;;;5.37;3.28;;;;;;;;;;4338662;33;20464;-81
2021/07/12 11:49:11;;;;;;;3.60;2.30;;;;;;;;;;4343622;33;20168;-82
2021/07/12 11:51:39;;;;;;;3.12;2.83;;;;;;;;;;4343549;33;20155;-81
2021/07/12 11:54:18;;;;;;;3.28;2.33;;;;;;;;;;4343364;33;20151;-82
2021/07/12 11:57:00;;;;;;;3.67;2.70;;;;;;;;;;4343311;33;20215;-81
2021/07/12 11:59:53;;;;;;;3.85;3.12;;;;;;;;;;4333599;33;20593;-81
2021/07/12 12:02:35;;;;;;;3.55;2.80;;;;;;;;;;4329207;33;20178;-81
2021/07/12 12:05:01;;;;;;;3.25;2.60;;;;;;;;;;4329212;33;20152;-81
2021/07/12 12:07:29;;;;;;;3.70;2.60;;;;;;;;;;4330702;33;20162;-81
2021/07/12 12:13:11;;;;;;;4.68;2.72;;;;;;;;;;4329996;33;20172;-81
2021/07/12 12:15:38;;;;;;;5.15;3.78;;;;;;;;;;4328924;33;20159;-82
2021/07/12 12:18:05;;;;;;;6.37;4.60;;;;;;;;;;4328405;33;20619;-81
2021/07/12 12:20:48;;;;;;;;;;;;;;;;;;;;;
2021/07/12 12:23:48;;;;;;;6.87;5.00;;;;;;;;;;4334582;33;20510;-82
2021/07/12 12:26:22;;;;;;;7.25;5.18;;;;;;;;;;4332003;33;20240;-82
2021/07/12 12:28:52;;;;;;;6.25;4.12;;;;;;;;;;4343176;33;20623;-81
2021/07/12 12:31:19;;;;;;;6.30;5.40;;;;;;;;;;4343087;33;20167;-81
2021/07/12 12:33:53;;;;;;;5.60;4.43;;;;;;;;;;4343012;33;20198;-83
2021/07/12 12:36:19;;;;;;;7.50;5.15;;;;;;;;;;4337371;33;20236;-81
2021/07/12 12:38:58;;;;;;;5.62;4.45;;;;;;;;;;4333172;33;20203;-82
2021/07/12 12:41:29;;;;;;;7.47;5.35;;;;;;;;;;4328353;33;20198;-82
2021/07/12 12:44:05;;;;;;;6.18;4.43;;;;;;;;;;4343348;33;20228;-80
2021/07/12 12:46:47;;;;;;;5.72;4.43;;;;;;;;;;4343117;33;20171;-82
2021/07/12 12:49:32;;;;;;;5.95;5.35;;;;;;;;;;4338016;33;20164;-82
2021/07/12 12:52:18;;;;;;;8.65;5.03;;;;;;;;;;4332938;33;20171;-82
2021/07/12 12:54:48;;;;;;;5.68;4.70;;;;;;;;;;4329607;33;20155;-82
2021/07/12 12:57:28;;;;;;;5.97;5.00;;;;;;;;;;4327809;33;20182;-82
2021/07/12 13:00:04;;;;;;;5.47;4.22;;;;;;;;;;4343187;33;20234;-82
2021/07/12 13:02:41;;;;;;;5.53;4.30;;;;;;;;;;4328379;33;20148;-78
2021/07/12 13:05:27;;;;;;;6.07;5.07;;;;;;;;;;4329504;33;20181;-81
2021/07/12 13:07:56;;;;;;;6.00;4.10;;;;;;;;;;4328309;33;20156;-82
2021/07/12 13:10:29;;;;;;;5.07;4.40;;;;;;;;;;4327978;32;20156;-83
2021/07/12 13:13:01;;;;;;;6.95;5.68;;;;;;;;;;4338333;33;20140;-82
2021/07/12 13:15:34;;;;;;;4.50;3.70;;;;;;;;;;4337069;33;20204;-82
2021/07/12 13:18:06;;;;;;;5.35;4.50;;;;;;;;;;4327745;33;20221;-82
2021/07/12 13:20:32;;;;;;;5.05;3.58;;;;;;;;;;4328065;33;20219;-83
2021/07/12 13:23:02;;;;;;;5.05;3.80;;;;;;;;;;4327831;33;20160;-82
2021/07/12 13:25:29;;;;;;;4.25;3.85;;;;;;;;;;4327668;33;20152;-81
2021/07/12 13:28:04;;;;;;;4.10;3.70;;;;;;;;;;4327765;33;20153;-82
2021/07/12 13:30:30;;;;;;;3.30;3.00;;;;;;;;;;4327713;33;20182;-82
2021/07/12 13:32:57;;;;;;;5.43;2.95;;;;;;;;;;4327732;33;20152;-81
2021/07/12 13:38:15;;;;;;;5.40;3.72;;;;;;;;;;4329858;33;20211;-81
2021/07/12 13:40:41;;;;;;;3.83;3.20;;;;;;;;;;4344408;33;20140;-82
2021/07/12 13:43:10;;;;;;;4.18;3.30;;;;;;;;;;4342222;33;20159;-82
2021/07/12 13:45:39;;;;;;;4.25;3.12;;;;;;;;;;4343645;33;20162;-83
2021/07/12 13:48:07;;;;;;;3.62;2.90;;;;;;;;;;4342216;33;20639;-83
2021/07/12 13:50:33;;;;;;;6.82;3.22;;;;;;;;;;4342283;33;20655;-84
2021/07/12 13:53:02;;;;;;;4.60;3.90;;;;;;;;;;4342484;33;20190;-84
2021/07/12 13:55:29;;;;;;;4.53;4.12;;;;;;;;;;4342915;33;20159;-84
2021/07/12 13:57:55;;;;;;;3.70;3.40;;;;;;;;;;4342603;33;20199;-82
2021/07/12 14:00:21;;;;;;;5.30;4.78;;;;;;;;;;4341377;33;20152;-82
2021/07/12 14:02:46;;;;;;;8.05;5.30;;;;;;;;;;4343293;33;20121;-83
2021/07/12 14:05:13;;;;;;;5.62;5.12;;;;;;;;;;4342238;32;20155;-82
2021/07/12 14:07:47;;;;;;;6.95;5.43;;;;;;;;;;4341894;33;20164;-82
2021/07/12 14:10:17;;;;;;;7.28;6.07;;;;;;;;;;4341612;33;20151;-82
2021/07/12 14:13:13;;;;;;;5.90;5.30;;;;;;;;;;4341708;33;20472;-82
2021/07/12 14:15:46;;;;;;;5.45;4.95;;;;;;;;;;4343537;32;20189;-82
2021/07/12 14:18:26;;;;;;;6.28;5.68;;;;;;;;;;4342541;32;20457;-83
2021/07/12 14:21:15;;;;;;;8.05;6.57;;;;;;;;;;4332571;33;20746;-83
2021/07/12 14:23:51;;;;;;;7.28;6.00;;;;;;;;;;4320651;33;20171;-83
2021/07/12 14:26:24;;;;;;;7.03;5.90;;;;;;;;;;4332945;33;20539;-84
2021/07/12 14:28:54;;;;;;;7.53;6.75;;;;;;;;;;4341850;33;20163;-80
2021/07/12 14:31:24;;;;;;;8.13;7.07;;;;;;;;;;4343173;33;20173;-84
2021/07/12 14:33:56;;;;;;;9.43;6.90;;;;;;;;;;4343746;33;20652;-85
2021/07/12 14:36:22;;;;;;;7.90;7.20;;;;;;;;;;4342568;33;20171;-83
2021/07/12 14:38:57;;;;;;;11.15;7.47;;;;;;;;;;4340682;33;20351;-82
2021/07/12 14:42:26;;;;;;;9.48;8.15;;;;;;;;;;4337108;32;20163;-83
2021/07/12 14:44:28;;;;;;;9.73;8.50;;;;;;;;;;4340618;32;20190;-82
2021/07/12 14:46:54;;;;;;;10.82;8.27;;;;;;;;;;4316659;33;20211;-83
2021/07/12 14:49:21;;;;;;;9.68;8.50;;;;;;;;;;4329028;33;20206;-82
2021/07/12 14:51:46;;;;;;;8.00;7.15;;;;;;;;;;4328872;33;20178;-82
2021/07/12 14:54:15;;;;;;;9.18;7.45;;;;;;;;;;4335089;32;20167;-84
2021/07/12 14:56:40;;;;;;;8.45;7.55;;;;;;;;;;4343982;33;20159;-83
2021/07/12 14:59:05;;;;;;;9.05;8.07;;;;;;;;;;4344315;33;20258;-82
2021/07/12 15:01:32;;;;;;;9.02;8.13;;;;;;;;;;4342195;32;20172;-81
2021/07/12 15:03:59;;;;;;;9.20;8.23;;;;;;;;;;4342321;33;20187;-82
2021/07/12 15:06:25;;;;;;;9.40;7.93;;;;;;;;;;4330363;33;20163;-82
2021/07/12 15:08:53;;;;;;;8.70;6.78;;;;;;;;;;4341699;33;20244;-80
2021/07/12 15:11:24;;;;;;;8.65;7.35;;;;;;;;;;4342637;33;20168;-83
2021/07/12 15:13:59;;;;;;;10.32;8.35;;;;;;;;;;4342136;33;20240;-81
2021/07/12 15:16:24;;;;;;;11.07;9.23;;;;;;;;;;4342298;33;20245;-81
2021/07/12 15:19:16;;;;;;;11.32;8.38;;;;;;;;;;4341709;33;20186;-81
2021/07/12 15:21:42;;;;;;;10.68;8.95;;;;;;;;;;4342733;33;20279;-81
2021/07/12 15:24:07;;;;;;;9.45;8.43;;;;;;;;;;4345883;33;20155;-80
2021/07/12 15:26:43;;;;;;;8.93;7.97;;;;;;;;;;4346330;33;20158;-81
2021/07/12 15:29:08;;;;;;;9.90;8.90;;;;;;;;;;4345639;33;20179;-80